createdAt,value
2023-03-06T01:33:57.658Z,5.20
2023-03-06T01:59:20.243Z,4.77
2023-03-06T02:52:04.321Z,4.70
2023-03-06T02:57:41.871Z,4.53
2023-03-06T03:03:01.116Z,4.37
2023-03-06T03:08:14.529Z,4.67
2023-03-06T03:13:22.930Z,4.73
2023-03-06T03:18:30.336Z,4.33
2023-03-06T03:23:33.722Z,4.30
2023-03-06T03:28:37.290Z,4.50
2023-03-06T03:33:41.336Z,5.13
2023-03-06T03:38:44.432Z,5.50
2023-03-06T03:43:47.603Z,4.37
2023-03-06T03:48:50.802Z,5.43
2023-03-06T03:53:54.069Z,5.63
2023-03-06T03:58:57.377Z,5.97
2023-03-06T04:04:00.829Z,5.50
2023-03-06T04:09:04.954Z,8.67
2023-03-06T04:14:10.135Z,6.90
2023-03-06T04:19:13.402Z,7.37
2023-03-06T04:24:43.939Z,8.00
2023-03-06T04:30:01.111Z,7.93
2023-03-06T04:35:11.849Z,9.97
2023-03-06T04:40:30.542Z,6.47
2023-03-06T04:46:21.075Z,9.00
2023-03-06T04:51:24.745Z,7.63
2023-03-06T04:56:34.795Z,7.37
2023-03-06T05:02:16.792Z,7.90
2023-03-06T05:07:42.220Z,6.93
2023-03-06T05:13:17.967Z,7.33
2023-03-06T05:18:37.050Z,7.23
2023-03-06T05:30:57.492Z,6.93
2023-03-06T05:36:16.441Z,6.43
2023-03-06T05:41:29.238Z,5.77
2023-03-06T05:46:39.976Z,7.83
2023-03-06T05:51:52.171Z,6.37
2023-03-06T05:56:57.637Z,7.00
2023-03-06T06:02:01.913Z,6.23
2023-03-06T06:07:16.384Z,5.67
2023-03-06T06:12:21.509Z,5.67
2023-03-06T06:17:25.996Z,5.67
2023-03-06T06:22:29.305Z,5.43
2023-03-06T06:27:33.910Z,7.80
2023-03-06T06:32:37.518Z,11.23
2023-03-06T06:37:43.470Z,12.90
2023-03-06T06:42:47.665Z,15.13
2023-03-06T06:47:51.160Z,10.93
2023-03-06T06:52:54.439Z,15.23
2023-03-06T06:57:57.653Z,21.47
2023-03-06T07:03:00.897Z,14.23
2023-03-06T07:08:04.261Z,8.83
2023-03-06T07:13:07.297Z,13.97
2023-03-06T07:18:10.448Z,13.67
2023-03-06T07:23:13.922Z,12.30
2023-03-06T07:28:18.659Z,11.37
2023-03-06T07:33:22.678Z,9.47
2023-03-06T07:38:26.015Z,11.80
2023-03-06T07:43:29.566Z,8.57
2023-03-06T07:48:32.922Z,9.13
2023-03-06T07:53:36.323Z,11.00
2023-03-06T07:58:42.924Z,8.13
2023-03-06T08:03:48.426Z,11.10
2023-03-06T08:08:56.364Z,11.70
2023-03-06T11:44:37.018Z,9.90
2023-03-06T11:49:46.652Z,9.73
2023-03-06T11:54:55.676Z,9.70
2023-03-06T12:00:29.946Z,9.63
2023-03-06T12:05:35.946Z,9.80
2023-03-06T12:11:10.885Z,8.63
2023-03-06T12:16:24.684Z,8.93
2023-03-06T12:21:47.650Z,8.73
2023-03-06T12:26:57.294Z,10.17
2023-03-06T12:32:26.181Z,10.67
2023-03-06T12:38:01.941Z,10.93
2023-03-06T12:43:40.197Z,9.97
2023-03-06T12:48:49.148Z,12.77
2023-03-06T12:53:53.297Z,10.87
2023-03-06T12:58:59.612Z,11.50
2023-03-06T13:04:29.267Z,12.17
2023-03-06T13:10:14.609Z,10.33
2023-03-06T13:15:39.572Z,11.10
2023-03-06T13:20:45.331Z,9.73
2023-03-06T13:25:51.124Z,11.53
2023-03-06T13:30:54.541Z,10.87
2023-03-06T13:35:59.952Z,10.90
2023-03-06T13:41:25.309Z,11.00
2023-03-06T13:46:38.330Z,11.57
2023-03-06T13:51:50.771Z,10.23
2023-03-06T13:57:08.835Z,10.10
2023-03-06T14:02:57.149Z,9.83
2023-03-06T14:08:17.324Z,12.53
2023-03-06T14:13:32.083Z,11.00
2023-03-06T14:18:42.753Z,13.50
2023-03-06T14:23:47.548Z,12.43
2023-03-06T14:28:53.562Z,14.20
2023-03-06T14:34:01.329Z,14.97
2023-03-06T14:39:25.881Z,15.37
2023-03-06T14:44:29.162Z,15.00
2023-03-06T14:49:32.361Z,16.03
2023-03-06T14:54:39.987Z,15.13
2023-03-06T14:59:53.844Z,14.73
2023-03-06T15:05:07.829Z,14.70
2023-03-06T15:10:30.915Z,10.87
2023-03-06T15:15:34.151Z,9.77
2023-03-06T15:20:42.237Z,11.83
2023-03-06T15:26:00.430Z,11.03
2023-03-06T15:31:36.045Z,11.60
2023-03-06T15:37:21.085Z,12.23
2023-03-06T15:42:30.006Z,11.10
2023-03-06T15:47:39.533Z,12.33
2023-03-06T15:58:47.045Z,11.40
2023-03-06T16:03:51.374Z,12.53
2023-03-06T18:37:57.495Z,23.87
2023-03-06T18:44:16.490Z,21.93
2023-03-06T21:49:39.406Z,17.87
2023-03-06T21:54:42.685Z,19.40
2023-03-06T22:06:40.783Z,16.43
2023-03-06T22:11:44.373Z,14.70
2023-03-06T22:16:47.660Z,15.43
2023-03-06T22:21:50.911Z,16.83
2023-03-06T22:33:30.099Z,16.30
2023-03-06T22:38:34.399Z,17.27
2023-03-06T22:43:38.169Z,17.70
2023-03-06T22:48:41.662Z,17.83
2023-03-06T22:53:44.970Z,16.47
2023-03-06T22:58:48.813Z,17.63
2023-03-06T23:04:00.046Z,18.37
2023-03-06T23:09:09.952Z,17.00
2023-03-06T23:14:13.565Z,16.63
2023-03-06T23:19:16.710Z,19.07
2023-03-06T23:24:19.820Z,18.13
2023-03-06T23:29:23.005Z,18.30
2023-03-06T23:34:26.258Z,17.20
2023-03-06T23:39:29.530Z,17.70
2023-03-06T23:44:34.594Z,18.47
2023-03-06T23:49:37.894Z,21.10
2023-03-06T23:54:41.228Z,23.23
2023-03-06T23:59:45.540Z,24.20
